sensor_id;sensor_type;location;lat;lon;timestamp;P1;durP1;ratioP1;P2;durP2;ratioP2
83145;SDS011;73037;51.110;4.706;2024-02-28T00:01:27;24.80;;;11.32;;
83145;SDS011;73037;51.110;4.706;2024-02-28T00:03:52;20.58;;;10.38;;
83145;SDS011;73037;51.110;4.706;2024-02-28T00:06:18;22.33;;;10.60;;
83145;SDS011;73037;51.110;4.706;2024-02-28T00:08:44;22.58;;;10.80;;
83145;SDS011;73037;51.110;4.706;2024-02-28T00:11:10;19.80;;;10.25;;
83145;SDS011;73037;51.110;4.706;2024-02-28T00:13:35;19.30;;;10.48;;
83145;SDS011;73037;51.110;4.706;2024-02-28T00:16:02;21.67;;;9.68;;
83145;SDS011;73037;51.110;4.706;2024-02-28T00:18:28;18.60;;;9.50;;
83145;SDS011;73037;51.110;4.706;2024-02-28T00:20:56;21.48;;;10.13;;
83145;SDS011;73037;51.110;4.706;2024-02-28T00:23:21;19.00;;;9.95;;
83145;SDS011;73037;51.110;4.706;2024-02-28T00:25:47;19.83;;;9.90;;
83145;SDS011;73037;51.110;4.706;2024-02-28T00:28:13;19.08;;;9.95;;
83145;SDS011;73037;51.110;4.706;2024-02-28T00:30:39;18.52;;;9.18;;
83145;SDS011;73037;51.110;4.706;2024-02-28T00:33:06;18.27;;;9.57;;
83145;SDS011;73037;51.110;4.706;2024-02-28T00:35:31;18.55;;;9.10;;
83145;SDS011;73037;51.110;4.706;2024-02-28T00:38:01;16.50;;;9.05;;
83145;SDS011;73037;51.110;4.706;2024-02-28T00:40:27;19.95;;;9.90;;
83145;SDS011;73037;51.110;4.706;2024-02-28T00:42:53;16.77;;;9.90;;
83145;SDS011;73037;51.110;4.706;2024-02-28T00:45:19;20.92;;;9.93;;
83145;SDS011;73037;51.110;4.706;2024-02-28T00:47:45;18.58;;;9.48;;
83145;SDS011;73037;51.110;4.706;2024-02-28T00:50:11;20.02;;;10.48;;
83145;SDS011;73037;51.110;4.706;2024-02-28T00:52:36;17.52;;;9.90;;
83145;SDS011;73037;51.110;4.706;2024-02-28T00:55:02;21.38;;;9.93;;
83145;SDS011;73037;51.110;4.706;2024-02-28T00:57:30;19.10;;;9.57;;
83145;SDS011;73037;51.110;4.706;2024-02-28T00:59:56;18.23;;;9.52;;
83145;SDS011;73037;51.110;4.706;2024-02-28T01:02:21;17.88;;;9.05;;
83145;SDS011;73037;51.110;4.706;2024-02-28T01:04:47;16.75;;;9.25;;
83145;SDS011;73037;51.110;4.706;2024-02-28T01:07:13;17.25;;;8.77;;
83145;SDS011;73037;51.110;4.706;2024-02-28T01:09:38;18.13;;;9.25;;
83145;SDS011;73037;51.110;4.706;2024-02-28T01:12:04;17.75;;;9.02;;
83145;SDS011;73037;51.110;4.706;2024-02-28T01:14:30;20.15;;;9.80;;
83145;SDS011;73037;51.110;4.706;2024-02-28T01:16:55;18.13;;;9.48;;
83145;SDS011;73037;51.110;4.706;2024-02-28T01:19:21;18.75;;;10.13;;
83145;SDS011;73037;51.110;4.706;2024-02-28T01:21:47;24.48;;;11.52;;
83145;SDS011;73037;51.110;4.706;2024-02-28T01:24:12;25.13;;;11.30;;
83145;SDS011;73037;51.110;4.706;2024-02-28T01:26:38;21.95;;;10.50;;
83145;SDS011;73037;51.110;4.706;2024-02-28T01:29:04;23.00;;;10.98;;
83145;SDS011;73037;51.110;4.706;2024-02-28T01:31:30;22.35;;;9.95;;
83145;SDS011;73037;51.110;4.706;2024-02-28T01:33:56;18.00;;;9.15;;
83145;SDS011;73037;51.110;4.706;2024-02-28T01:36:22;16.25;;;8.90;;
83145;SDS011;73037;51.110;4.706;2024-02-28T01:38:48;18.65;;;9.55;;
83145;SDS011;73037;51.110;4.706;2024-02-28T01:41:13;19.42;;;9.65;;
83145;SDS011;73037;51.110;4.706;2024-02-28T01:43:39;20.90;;;9.55;;
83145;SDS011;73037;51.110;4.706;2024-02-28T01:46:07;15.80;;;9.05;;
83145;SDS011;73037;51.110;4.706;2024-02-28T01:51:25;18.15;;;8.63;;
83145;SDS011;73037;51.110;4.706;2024-02-28T01:53:54;14.98;;;8.32;;
83145;SDS011;73037;51.110;4.706;2024-02-28T01:56:20;15.95;;;8.68;;
83145;SDS011;73037;51.110;4.706;2024-02-28T01:58:48;15.48;;;8.77;;
83145;SDS011;73037;51.110;4.706;2024-02-28T02:01:15;17.67;;;9.40;;
83145;SDS011;73037;51.110;4.706;2024-02-28T02:03:44;18.83;;;9.40;;
83145;SDS011;73037;51.110;4.706;2024-02-28T02:06:10;17.73;;;9.30;;
83145;SDS011;73037;51.110;4.706;2024-02-28T02:08:37;20.60;;;9.38;;
83145;SDS011;73037;51.110;4.706;2024-02-28T02:11:04;17.00;;;8.50;;
83145;SDS011;73037;51.110;4.706;2024-02-28T02:13:30;18.58;;;9.13;;
83145;SDS011;73037;51.110;4.706;2024-02-28T02:15:56;18.08;;;9.13;;
83145;SDS011;73037;51.110;4.706;2024-02-28T02:18:22;17.83;;;9.38;;
83145;SDS011;73037;51.110;4.706;2024-02-28T02:20:49;18.33;;;9.45;;
83145;SDS011;73037;51.110;4.706;2024-02-28T02:23:19;23.55;;;9.82;;
83145;SDS011;73037;51.110;4.706;2024-02-28T02:25:48;22.30;;;10.80;;
83145;SDS011;73037;51.110;4.706;2024-02-28T02:28:14;21.80;;;10.88;;
83145;SDS011;73037;51.110;4.706;2024-02-28T02:30:40;20.23;;;10.45;;
83145;SDS011;73037;51.110;4.706;2024-02-28T02:33:07;23.35;;;11.32;;
83145;SDS011;73037;51.110;4.706;2024-02-28T02:35:33;20.55;;;10.82;;
83145;SDS011;73037;51.110;4.706;2024-02-28T02:37:59;20.45;;;10.32;;
83145;SDS011;73037;51.110;4.706;2024-02-28T02:40:25;26.30;;;11.15;;
83145;SDS011;73037;51.110;4.706;2024-02-28T02:42:51;22.80;;;9.60;;
83145;SDS011;73037;51.110;4.706;2024-02-28T02:45:17;23.90;;;10.98;;
83145;SDS011;73037;51.110;4.706;2024-02-28T02:47:42;23.10;;;11.15;;
83145;SDS011;73037;51.110;4.706;2024-02-28T02:50:11;23.20;;;11.07;;
83145;SDS011;73037;51.110;4.706;2024-02-28T02:52:37;24.10;;;12.73;;
83145;SDS011;73037;51.110;4.706;2024-02-28T02:55:03;27.70;;;12.02;;
83145;SDS011;73037;51.110;4.706;2024-02-28T02:57:29;21.20;;;10.35;;
83145;SDS011;73037;51.110;4.706;2024-02-28T02:59:57;25.27;;;11.27;;
83145;SDS011;73037;51.110;4.706;2024-02-28T03:02:22;23.85;;;11.10;;
83145;SDS011;73037;51.110;4.706;2024-02-28T03:04:48;22.15;;;10.90;;
83145;SDS011;73037;51.110;4.706;2024-02-28T03:07:13;21.95;;;10.68;;
83145;SDS011;73037;51.110;4.706;2024-02-28T03:09:39;23.08;;;10.73;;
83145;SDS011;73037;51.110;4.706;2024-02-28T03:12:06;19.60;;;10.55;;
83145;SDS011;73037;51.110;4.706;2024-02-28T03:14:32;23.80;;;11.63;;
83145;SDS011;73037;51.110;4.706;2024-02-28T03:16:57;19.35;;;10.38;;
83145;SDS011;73037;51.110;4.706;2024-02-28T03:19:23;25.67;;;11.18;;
83145;SDS011;73037;51.110;4.706;2024-02-28T03:21:49;23.13;;;11.10;;
83145;SDS011;73037;51.110;4.706;2024-02-28T03:24:14;20.02;;;10.60;;
83145;SDS011;73037;51.110;4.706;2024-02-28T03:26:40;20.00;;;10.13;;
83145;SDS011;73037;51.110;4.706;2024-02-28T03:29:07;20.52;;;10.93;;
83145;SDS011;73037;51.110;4.706;2024-02-28T03:31:33;23.45;;;11.48;;
83145;SDS011;73037;51.110;4.706;2024-02-28T03:33:58;21.73;;;10.80;;
83145;SDS011;73037;51.110;4.706;2024-02-28T03:36:24;23.10;;;10.80;;
83145;SDS011;73037;51.110;4.706;2024-02-28T03:38:50;25.67;;;10.25;;
83145;SDS011;73037;51.110;4.706;2024-02-28T03:41:15;23.60;;;9.93;;
83145;SDS011;73037;51.110;4.706;2024-02-28T03:43:41;23.73;;;10.27;;
83145;SDS011;73037;51.110;4.706;2024-02-28T03:46:07;19.38;;;10.13;;
83145;SDS011;73037;51.110;4.706;2024-02-28T03:48:33;19.90;;;10.25;;
83145;SDS011;73037;51.110;4.706;2024-02-28T03:50:58;27.20;;;14.18;;
83145;SDS011;73037;51.110;4.706;2024-02-28T03:53:24;28.30;;;11.10;;
83145;SDS011;73037;51.110;4.706;2024-02-28T03:55:49;23.35;;;10.57;;
83145;SDS011;73037;51.110;4.706;2024-02-28T03:58:15;20.40;;;9.55;;
83145;SDS011;73037;51.110;4.706;2024-02-28T04:00:41;18.38;;;9.70;;
83145;SDS011;73037;51.110;4.706;2024-02-28T04:03:09;20.88;;;10.70;;
83145;SDS011;73037;51.110;4.706;2024-02-28T04:05:35;21.20;;;10.43;;
83145;SDS011;73037;51.110;4.706;2024-02-28T04:08:00;25.60;;;9.98;;
83145;SDS011;73037;51.110;4.706;2024-02-28T04:10:26;22.27;;;10.30;;
83145;SDS011;73037;51.110;4.706;2024-02-28T04:12:52;24.88;;;10.13;;
83145;SDS011;73037;51.110;4.706;2024-02-28T04:15:17;29.25;;;11.13;;
83145;SDS011;73037;51.110;4.706;2024-02-28T04:17:43;25.33;;;11.15;;
83145;SDS011;73037;51.110;4.706;2024-02-28T04:20:09;24.65;;;10.48;;
83145;SDS011;73037;51.110;4.706;2024-02-28T04:22:38;21.77;;;10.15;;
83145;SDS011;73037;51.110;4.706;2024-02-28T04:25:04;22.15;;;9.82;;
83145;SDS011;73037;51.110;4.706;2024-02-28T04:27:30;25.85;;;11.77;;
83145;SDS011;73037;51.110;4.706;2024-02-28T04:29:56;21.80;;;10.55;;
83145;SDS011;73037;51.110;4.706;2024-02-28T04:32:22;22.85;;;10.30;;
83145;SDS011;73037;51.110;4.706;2024-02-28T04:34:47;22.27;;;10.60;;
83145;SDS011;73037;51.110;4.706;2024-02-28T04:37:13;20.67;;;10.00;;
83145;SDS011;73037;51.110;4.706;2024-02-28T04:39:39;25.42;;;11.90;;
83145;SDS011;73037;51.110;4.706;2024-02-28T04:42:05;25.63;;;10.77;;
83145;SDS011;73037;51.110;4.706;2024-02-28T04:44:31;25.13;;;11.50;;
83145;SDS011;73037;51.110;4.706;2024-02-28T04:46:56;26.42;;;11.15;;
83145;SDS011;73037;51.110;4.706;2024-02-28T04:49:22;22.85;;;11.05;;
83145;SDS011;73037;51.110;4.706;2024-02-28T04:51:48;23.85;;;11.18;;
83145;SDS011;73037;51.110;4.706;2024-02-28T04:54:13;25.30;;;11.60;;
83145;SDS011;73037;51.110;4.706;2024-02-28T04:56:42;23.35;;;10.65;;
83145;SDS011;73037;51.110;4.706;2024-02-28T04:59:08;25.35;;;11.57;;
83145;SDS011;73037;51.110;4.706;2024-02-28T05:01:36;25.80;;;11.18;;
83145;SDS011;73037;51.110;4.706;2024-02-28T05:04:05;28.33;;;11.95;;
83145;SDS011;73037;51.110;4.706;2024-02-28T05:06:31;25.48;;;12.05;;
83145;SDS011;73037;51.110;4.706;2024-02-28T05:08:57;28.55;;;11.65;;
83145;SDS011;73037;51.110;4.706;2024-02-28T05:11:23;26.88;;;12.45;;
83145;SDS011;73037;51.110;4.706;2024-02-28T05:13:48;26.85;;;11.15;;
83145;SDS011;73037;51.110;4.706;2024-02-28T05:16:14;22.88;;;10.70;;
83145;SDS011;73037;51.110;4.706;2024-02-28T05:18:41;27.10;;;10.88;;
83145;SDS011;73037;51.110;4.706;2024-02-28T05:21:06;23.85;;;11.55;;
83145;SDS011;73037;51.110;4.706;2024-02-28T05:23:32;24.05;;;11.95;;
83145;SDS011;73037;51.110;4.706;2024-02-28T05:25:59;27.40;;;12.45;;
83145;SDS011;73037;51.110;4.706;2024-02-28T05:28:35;28.20;;;12.25;;
83145;SDS011;73037;51.110;4.706;2024-02-28T05:31:43;28.55;;;12.13;;
83145;SDS011;73037;51.110;4.706;2024-02-28T05:33:54;31.70;;;11.93;;
83145;SDS011;73037;51.110;4.706;2024-02-28T05:36:24;26.83;;;11.23;;
83145;SDS011;73037;51.110;4.706;2024-02-28T05:38:51;27.73;;;12.38;;
83145;SDS011;73037;51.110;4.706;2024-02-28T05:41:18;30.35;;;12.60;;
83145;SDS011;73037;51.110;4.706;2024-02-28T05:43:45;34.55;;;12.90;;
83145;SDS011;73037;51.110;4.706;2024-02-28T05:46:12;29.35;;;12.27;;
83145;SDS011;73037;51.110;4.706;2024-02-28T05:48:38;29.88;;;12.68;;
83145;SDS011;73037;51.110;4.706;2024-02-28T05:51:05;30.05;;;11.55;;
83145;SDS011;73037;51.110;4.706;2024-02-28T05:53:31;27.08;;;12.55;;
83145;SDS011;73037;51.110;4.706;2024-02-28T05:56:00;27.30;;;11.82;;
83145;SDS011;73037;51.110;4.706;2024-02-28T05:58:26;27.63;;;11.75;;
83145;SDS011;73037;51.110;4.706;2024-02-28T06:00:52;31.63;;;13.05;;
83145;SDS011;73037;51.110;4.706;2024-02-28T06:03:17;31.33;;;12.15;;
83145;SDS011;73037;51.110;4.706;2024-02-28T06:05:43;29.45;;;11.80;;
83145;SDS011;73037;51.110;4.706;2024-02-28T06:08:09;31.98;;;11.57;;
83145;SDS011;73037;51.110;4.706;2024-02-28T06:10:35;31.13;;;12.55;;
83145;SDS011;73037;51.110;4.706;2024-02-28T06:13:01;29.80;;;12.10;;
83145;SDS011;73037;51.110;4.706;2024-02-28T06:15:27;27.45;;;12.00;;
83145;SDS011;73037;51.110;4.706;2024-02-28T06:17:53;29.65;;;12.13;;
83145;SDS011;73037;51.110;4.706;2024-02-28T06:20:21;27.73;;;11.38;;
83145;SDS011;73037;51.110;4.706;2024-02-28T06:22:46;28.52;;;12.55;;
83145;SDS011;73037;51.110;4.706;2024-02-28T06:25:12;31.98;;;13.00;;
83145;SDS011;73037;51.110;4.706;2024-02-28T06:27:47;30.00;;;12.82;;
83145;SDS011;73037;51.110;4.706;2024-02-28T06:30:12;28.60;;;12.35;;
83145;SDS011;73037;51.110;4.706;2024-02-28T06:32:38;26.23;;;11.65;;
83145;SDS011;73037;51.110;4.706;2024-02-28T06:35:04;30.80;;;12.73;;
83145;SDS011;73037;51.110;4.706;2024-02-28T06:37:30;32.72;;;13.68;;
83145;SDS011;73037;51.110;4.706;2024-02-28T06:39:56;44.58;;;16.98;;
83145;SDS011;73037;51.110;4.706;2024-02-28T06:42:22;38.22;;;13.82;;
83145;SDS011;73037;51.110;4.706;2024-02-28T06:44:47;32.13;;;13.18;;
83145;SDS011;73037;51.110;4.706;2024-02-28T06:47:13;34.53;;;13.68;;
83145;SDS011;73037;51.110;4.706;2024-02-28T06:49:38;36.83;;;14.68;;
83145;SDS011;73037;51.110;4.706;2024-02-28T06:52:04;29.70;;;13.27;;
83145;SDS011;73037;51.110;4.706;2024-02-28T06:54:30;32.53;;;13.60;;
83145;SDS011;73037;51.110;4.706;2024-02-28T06:56:57;34.25;;;13.65;;
83145;SDS011;73037;51.110;4.706;2024-02-28T06:59:22;30.00;;;13.18;;
83145;SDS011;73037;51.110;4.706;2024-02-28T07:01:48;31.20;;;13.75;;
83145;SDS011;73037;51.110;4.706;2024-02-28T07:04:14;27.92;;;12.88;;
83145;SDS011;73037;51.110;4.706;2024-02-28T07:06:39;32.80;;;13.20;;
83145;SDS011;73037;51.110;4.706;2024-02-28T07:09:07;26.05;;;11.98;;
83145;SDS011;73037;51.110;4.706;2024-02-28T07:11:33;25.65;;;12.50;;
83145;SDS011;73037;51.110;4.706;2024-02-28T07:13:59;26.92;;;12.57;;
83145;SDS011;73037;51.110;4.706;2024-02-28T07:16:27;28.90;;;11.88;;
83145;SDS011;73037;51.110;4.706;2024-02-28T07:18:53;30.50;;;12.13;;
83145;SDS011;73037;51.110;4.706;2024-02-28T07:21:19;27.27;;;12.07;;
83145;SDS011;73037;51.110;4.706;2024-02-28T07:23:44;29.20;;;12.32;;
83145;SDS011;73037;51.110;4.706;2024-02-28T07:26:14;27.20;;;11.73;;
83145;SDS011;73037;51.110;4.706;2024-02-28T07:28:41;26.23;;;12.43;;
83145;SDS011;73037;51.110;4.706;2024-02-28T07:31:06;23.23;;;12.10;;
83145;SDS011;73037;51.110;4.706;2024-02-28T07:33:32;28.27;;;12.68;;
83145;SDS011;73037;51.110;4.706;2024-02-28T07:35:57;26.23;;;11.85;;
83145;SDS011;73037;51.110;4.706;2024-02-28T07:38:26;26.52;;;11.90;;
83145;SDS011;73037;51.110;4.706;2024-02-28T07:40:53;27.25;;;12.38;;
83145;SDS011;73037;51.110;4.706;2024-02-28T07:43:18;28.05;;;12.38;;
83145;SDS011;73037;51.110;4.706;2024-02-28T07:45:44;24.70;;;12.10;;
83145;SDS011;73037;51.110;4.706;2024-02-28T07:48:09;26.15;;;11.73;;
83145;SDS011;73037;51.110;4.706;2024-02-28T07:50:35;22.10;;;11.30;;
83145;SDS011;73037;51.110;4.706;2024-02-28T07:53:02;20.98;;;10.48;;
83145;SDS011;73037;51.110;4.706;2024-02-28T07:55:28;25.63;;;13.52;;
83145;SDS011;73037;51.110;4.706;2024-02-28T07:57:53;27.13;;;13.85;;
83145;SDS011;73037;51.110;4.706;2024-02-28T08:00:19;23.83;;;12.90;;
83145;SDS011;73037;51.110;4.706;2024-02-28T08:02:45;22.45;;;11.70;;
83145;SDS011;73037;51.110;4.706;2024-02-28T08:05:12;29.75;;;13.50;;
83145;SDS011;73037;51.110;4.706;2024-02-28T08:07:39;23.30;;;12.00;;
83145;SDS011;73037;51.110;4.706;2024-02-28T08:10:04;20.85;;;10.38;;
83145;SDS011;73037;51.110;4.706;2024-02-28T08:12:31;21.52;;;9.57;;
83145;SDS011;73037;51.110;4.706;2024-02-28T08:14:57;24.48;;;10.35;;
83145;SDS011;73037;51.110;4.706;2024-02-28T08:17:23;15.93;;;8.45;;
83145;SDS011;73037;51.110;4.706;2024-02-28T08:19:48;18.45;;;10.23;;
83145;SDS011;73037;51.110;4.706;2024-02-28T08:22:14;16.15;;;9.27;;
83145;SDS011;73037;51.110;4.706;2024-02-28T08:24:40;22.08;;;10.10;;
83145;SDS011;73037;51.110;4.706;2024-02-28T08:27:05;18.00;;;9.60;;
83145;SDS011;73037;51.110;4.706;2024-02-28T08:29:31;20.25;;;10.10;;
83145;SDS011;73037;51.110;4.706;2024-02-28T08:31:57;20.60;;;10.70;;
83145;SDS011;73037;51.110;4.706;2024-02-28T08:34:23;23.27;;;11.95;;
83145;SDS011;73037;51.110;4.706;2024-02-28T08:36:49;25.17;;;11.85;;
83145;SDS011;73037;51.110;4.706;2024-02-28T08:41:42;23.42;;;12.32;;
83145;SDS011;73037;51.110;4.706;2024-02-28T08:44:08;24.08;;;11.65;;
83145;SDS011;73037;51.110;4.706;2024-02-28T08:46:33;23.83;;;11.50;;
83145;SDS011;73037;51.110;4.706;2024-02-28T08:48:59;23.45;;;11.32;;
83145;SDS011;73037;51.110;4.706;2024-02-28T08:51:25;26.25;;;12.20;;
83145;SDS011;73037;51.110;4.706;2024-02-28T08:53:50;25.30;;;11.63;;
83145;SDS011;73037;51.110;4.706;2024-02-28T08:58:43;25.17;;;12.48;;
83145;SDS011;73037;51.110;4.706;2024-02-28T09:01:12;25.48;;;12.07;;
83145;SDS011;73037;51.110;4.706;2024-02-28T09:03:40;27.88;;;13.55;;
83145;SDS011;73037;51.110;4.706;2024-02-28T09:06:05;24.27;;;11.00;;
83145;SDS011;73037;51.110;4.706;2024-02-28T09:08:31;28.13;;;13.68;;
83145;SDS011;73037;51.110;4.706;2024-02-28T09:10:57;26.13;;;12.85;;
83145;SDS011;73037;51.110;4.706;2024-02-28T09:13:23;28.02;;;12.80;;
83145;SDS011;73037;51.110;4.706;2024-02-28T09:15:49;28.58;;;12.88;;
83145;SDS011;73037;51.110;4.706;2024-02-28T09:18:16;28.02;;;12.27;;
83145;SDS011;73037;51.110;4.706;2024-02-28T09:20:42;25.05;;;12.02;;
83145;SDS011;73037;51.110;4.706;2024-02-28T09:23:07;25.55;;;12.00;;
83145;SDS011;73037;51.110;4.706;2024-02-28T09:25:33;24.50;;;11.70;;
83145;SDS011;73037;51.110;4.706;2024-02-28T09:28:00;25.30;;;12.18;;
83145;SDS011;73037;51.110;4.706;2024-02-28T09:30:27;31.95;;;12.20;;
83145;SDS011;73037;51.110;4.706;2024-02-28T09:32:53;26.63;;;11.52;;
83145;SDS011;73037;51.110;4.706;2024-02-28T09:35:19;28.38;;;11.82;;
83145;SDS011;73037;51.110;4.706;2024-02-28T09:37:45;26.98;;;11.82;;
83145;SDS011;73037;51.110;4.706;2024-02-28T09:40:10;22.80;;;11.40;;
83145;SDS011;73037;51.110;4.706;2024-02-28T09:42:37;21.52;;;11.02;;
83145;SDS011;73037;51.110;4.706;2024-02-28T09:45:03;24.08;;;9.98;;
83145;SDS011;73037;51.110;4.706;2024-02-28T09:47:29;23.90;;;11.02;;
83145;SDS011;73037;51.110;4.706;2024-02-28T09:49:56;28.60;;;13.00;;
83145;SDS011;73037;51.110;4.706;2024-02-28T09:52:26;29.65;;;12.93;;
83145;SDS011;73037;51.110;4.706;2024-02-28T09:54:52;33.03;;;13.90;;
83145;SDS011;73037;51.110;4.706;2024-02-28T09:57:18;37.80;;;13.80;;
83145;SDS011;73037;51.110;4.706;2024-02-28T09:59:44;32.70;;;13.68;;
83145;SDS011;73037;51.110;4.706;2024-02-28T10:04:37;27.98;;;12.20;;
83145;SDS011;73037;51.110;4.706;2024-02-28T10:07:10;26.25;;;11.20;;
83145;SDS011;73037;51.110;4.706;2024-02-28T10:09:40;28.85;;;11.43;;
83145;SDS011;73037;51.110;4.706;2024-02-28T10:12:06;25.75;;;11.45;;
83145;SDS011;73037;51.110;4.706;2024-02-28T10:14:32;32.78;;;12.60;;
83145;SDS011;73037;51.110;4.706;2024-02-28T10:16:57;26.35;;;11.32;;
83145;SDS011;73037;51.110;4.706;2024-02-28T10:19:24;26.92;;;11.48;;
83145;SDS011;73037;51.110;4.706;2024-02-28T10:21:50;26.48;;;11.25;;
83145;SDS011;73037;51.110;4.706;2024-02-28T10:24:16;26.50;;;11.25;;
83145;SDS011;73037;51.110;4.706;2024-02-28T10:26:45;26.17;;;11.18;;
83145;SDS011;73037;51.110;4.706;2024-02-28T10:29:20;24.20;;;10.10;;
83145;SDS011;73037;51.110;4.706;2024-02-28T10:31:54;26.33;;;12.52;;
83145;SDS011;73037;51.110;4.706;2024-02-28T10:34:20;29.20;;;11.43;;
83145;SDS011;73037;51.110;4.706;2024-02-28T10:36:46;24.90;;;11.15;;
83145;SDS011;73037;51.110;4.706;2024-02-28T10:39:12;29.67;;;10.80;;
83145;SDS011;73037;51.110;4.706;2024-02-28T10:41:39;24.15;;;10.65;;
83145;SDS011;73037;51.110;4.706;2024-02-28T10:44:05;28.65;;;10.88;;
83145;SDS011;73037;51.110;4.706;2024-02-28T10:46:31;22.58;;;9.90;;
83145;SDS011;73037;51.110;4.706;2024-02-28T10:48:57;23.52;;;10.20;;
83145;SDS011;73037;51.110;4.706;2024-02-28T10:51:24;25.13;;;10.32;;
83145;SDS011;73037;51.110;4.706;2024-02-28T10:54:09;24.55;;;10.23;;
83145;SDS011;73037;51.110;4.706;2024-02-28T10:56:40;25.48;;;10.57;;
83145;SDS011;73037;51.110;4.706;2024-02-28T10:59:07;23.13;;;9.90;;
83145;SDS011;73037;51.110;4.706;2024-02-28T11:01:37;25.42;;;10.88;;
83145;SDS011;73037;51.110;4.706;2024-02-28T11:04:07;23.55;;;10.10;;
83145;SDS011;73037;51.110;4.706;2024-02-28T11:06:33;25.48;;;10.07;;
83145;SDS011;73037;51.110;4.706;2024-02-28T11:08:59;22.48;;;9.98;;
83145;SDS011;73037;51.110;4.706;2024-02-28T11:11:31;22.02;;;9.60;;
83145;SDS011;73037;51.110;4.706;2024-02-28T11:13:58;26.42;;;10.70;;
83145;SDS011;73037;51.110;4.706;2024-02-28T11:16:29;22.80;;;10.00;;
83145;SDS011;73037;51.110;4.706;2024-02-28T11:18:58;26.88;;;11.32;;
83145;SDS011;73037;51.110;4.706;2024-02-28T11:21:27;26.33;;;11.05;;
83145;SDS011;73037;51.110;4.706;2024-02-28T11:23:59;23.58;;;10.63;;
83145;SDS011;73037;51.110;4.706;2024-02-28T11:26:26;24.00;;;9.82;;
83145;SDS011;73037;51.110;4.706;2024-02-28T11:28:53;21.73;;;9.23;;
83145;SDS011;73037;51.110;4.706;2024-02-28T11:31:22;23.10;;;9.85;;
83145;SDS011;73037;51.110;4.706;2024-02-28T11:33:47;19.27;;;10.07;;
83145;SDS011;73037;51.110;4.706;2024-02-28T11:36:13;20.98;;;9.60;;
83145;SDS011;73037;51.110;4.706;2024-02-28T11:38:40;23.35;;;9.90;;
83145;SDS011;73037;51.110;4.706;2024-02-28T11:41:06;18.38;;;9.05;;
83145;SDS011;73037;51.110;4.706;2024-02-28T11:43:32;20.52;;;8.98;;
83145;SDS011;73037;51.110;4.706;2024-02-28T11:46:02;18.83;;;9.02;;
83145;SDS011;73037;51.110;4.706;2024-02-28T11:48:33;21.77;;;9.18;;
83145;SDS011;73037;51.110;4.706;2024-02-28T11:50:59;21.10;;;8.05;;
83145;SDS011;73037;51.110;4.706;2024-02-28T11:53:25;19.42;;;8.80;;
83145;SDS011;73037;51.110;4.706;2024-02-28T11:55:54;18.40;;;9.07;;
83145;SDS011;73037;51.110;4.706;2024-02-28T11:58:21;28.38;;;12.70;;
83145;SDS011;73037;51.110;4.706;2024-02-28T12:00:49;18.38;;;8.77;;
83145;SDS011;73037;51.110;4.706;2024-02-28T12:03:22;19.98;;;9.05;;
83145;SDS011;73037;51.110;4.706;2024-02-28T12:05:49;16.17;;;7.53;;
83145;SDS011;73037;51.110;4.706;2024-02-28T12:08:16;18.27;;;8.52;;
83145;SDS011;73037;51.110;4.706;2024-02-28T12:10:43;18.50;;;8.35;;
83145;SDS011;73037;51.110;4.706;2024-02-28T12:13:09;18.08;;;8.05;;
83145;SDS011;73037;51.110;4.706;2024-02-28T12:15:36;20.60;;;8.07;;
83145;SDS011;73037;51.110;4.706;2024-02-28T12:18:07;18.02;;;8.00;;
83145;SDS011;73037;51.110;4.706;2024-02-28T12:20:35;19.58;;;7.88;;
83145;SDS011;73037;51.110;4.706;2024-02-28T12:23:02;20.35;;;8.15;;
83145;SDS011;73037;51.110;4.706;2024-02-28T12:25:28;16.63;;;7.10;;
83145;SDS011;73037;51.110;4.706;2024-02-28T12:27:54;16.63;;;8.10;;
83145;SDS011;73037;51.110;4.706;2024-02-28T12:30:20;17.55;;;7.55;;
83145;SDS011;73037;51.110;4.706;2024-02-28T12:32:45;16.00;;;7.18;;
83145;SDS011;73037;51.110;4.706;2024-02-28T12:35:11;13.95;;;7.15;;
83145;SDS011;73037;51.110;4.706;2024-02-28T12:37:37;12.93;;;7.13;;
83145;SDS011;73037;51.110;4.706;2024-02-28T12:40:04;14.55;;;6.75;;
83145;SDS011;73037;51.110;4.706;2024-02-28T12:42:31;17.48;;;8.90;;
83145;SDS011;73037;51.110;4.706;2024-02-28T12:44:57;14.32;;;7.55;;
83145;SDS011;73037;51.110;4.706;2024-02-28T12:47:22;13.57;;;6.57;;
83145;SDS011;73037;51.110;4.706;2024-02-28T12:49:48;12.30;;;6.47;;
83145;SDS011;73037;51.110;4.706;2024-02-28T12:52:13;13.93;;;6.80;;
83145;SDS011;73037;51.110;4.706;2024-02-28T12:54:39;15.65;;;6.18;;
83145;SDS011;73037;51.110;4.706;2024-02-28T12:57:05;12.13;;;6.63;;
83145;SDS011;73037;51.110;4.706;2024-02-28T12:59:31;16.67;;;8.77;;
83145;SDS011;73037;51.110;4.706;2024-02-28T13:01:58;16.20;;;7.13;;
83145;SDS011;73037;51.110;4.706;2024-02-28T13:04:24;15.88;;;7.55;;
83145;SDS011;73037;51.110;4.706;2024-02-28T13:06:51;13.50;;;6.78;;
83145;SDS011;73037;51.110;4.706;2024-02-28T13:09:18;12.52;;;8.02;;
83145;SDS011;73037;51.110;4.706;2024-02-28T13:11:44;16.23;;;7.65;;
83145;SDS011;73037;51.110;4.706;2024-02-28T13:14:10;12.43;;;6.68;;
83145;SDS011;73037;51.110;4.706;2024-02-28T13:16:36;29.48;;;14.85;;
83145;SDS011;73037;51.110;4.706;2024-02-28T13:19:02;18.75;;;9.25;;
83145;SDS011;73037;51.110;4.706;2024-02-28T13:21:29;20.02;;;8.50;;
83145;SDS011;73037;51.110;4.706;2024-02-28T13:23:57;13.98;;;8.43;;
83145;SDS011;73037;51.110;4.706;2024-02-28T13:26:23;17.85;;;7.72;;
83145;SDS011;73037;51.110;4.706;2024-02-28T13:28:49;14.02;;;7.00;;
83145;SDS011;73037;51.110;4.706;2024-02-28T13:31:15;17.55;;;7.78;;
83145;SDS011;73037;51.110;4.706;2024-02-28T13:33:41;19.60;;;8.10;;
83145;SDS011;73037;51.110;4.706;2024-02-28T13:36:07;17.52;;;7.18;;
83145;SDS011;73037;51.110;4.706;2024-02-28T13:38:33;16.23;;;7.75;;
83145;SDS011;73037;51.110;4.706;2024-02-28T13:40:58;23.92;;;12.07;;
83145;SDS011;73037;51.110;4.706;2024-02-28T13:43:24;20.08;;;10.07;;
83145;SDS011;73037;51.110;4.706;2024-02-28T13:45:50;13.77;;;7.20;;
83145;SDS011;73037;51.110;4.706;2024-02-28T13:48:17;12.52;;;6.60;;
83145;SDS011;73037;51.110;4.706;2024-02-28T13:50:46;37.75;;;18.35;;
83145;SDS011;73037;51.110;4.706;2024-02-28T13:53:12;11.20;;;6.50;;
83145;SDS011;73037;51.110;4.706;2024-02-28T13:55:39;13.80;;;7.00;;
83145;SDS011;73037;51.110;4.706;2024-02-28T13:58:05;13.05;;;6.75;;
83145;SDS011;73037;51.110;4.706;2024-02-28T14:00:31;12.55;;;6.70;;
83145;SDS011;73037;51.110;4.706;2024-02-28T14:02:58;13.68;;;7.43;;
83145;SDS011;73037;51.110;4.706;2024-02-28T14:05:24;12.25;;;7.22;;
83145;SDS011;73037;51.110;4.706;2024-02-28T14:07:52;15.52;;;6.65;;
83145;SDS011;73037;51.110;4.706;2024-02-28T14:10:18;13.45;;;6.20;;
83145;SDS011;73037;51.110;4.706;2024-02-28T14:12:44;11.00;;;5.10;;
83145;SDS011;73037;51.110;4.706;2024-02-28T14:15:09;12.13;;;6.70;;
83145;SDS011;73037;51.110;4.706;2024-02-28T14:17:36;10.18;;;5.50;;
83145;SDS011;73037;51.110;4.706;2024-02-28T14:20:03;9.45;;;5.47;;
83145;SDS011;73037;51.110;4.706;2024-02-28T14:22:30;11.68;;;4.90;;
83145;SDS011;73037;51.110;4.706;2024-02-28T14:24:55;9.50;;;4.80;;
83145;SDS011;73037;51.110;4.706;2024-02-28T14:27:21;9.25;;;4.93;;
83145;SDS011;73037;51.110;4.706;2024-02-28T14:29:47;8.50;;;4.60;;
83145;SDS011;73037;51.110;4.706;2024-02-28T14:32:14;10.10;;;4.68;;